Main page
METAR-TAF:

METAR-TAF

Airports :

Gökçeada Airport

Gökçeada, Turkey

latitude: 40-12-04N, longitude: 25-52-56E, elevation: 22 m

METAR: missing

Time: 23:31 (20:31 UTC)

Forecast

The report was made 6 hours and 51 minutes ago, at 13:40 UTC
Forecast valid from 15 at 15 UTC to 15 at 24 UTC
Wind 15 kt from the South
Visibility 10 km or more
Scattered clouds at a height of 2500 ft
Broken clouds at a height of 9000 ft
light rain showers
Temporary
from 15 at 15 UTC to 15 at 18 UTC
Few clouds at a height of 2500 ft, Cumulonimbus.
Broken clouds at a height of 3000 ft
thunderstorm, light rain

TAF: LTFK 151340Z 1515/1524 18015KT 9999 -SHRA SCT025 BKN090 TEMPO 1515/1518 -TSRA FEW025CB BKN030

Weather observations and forecasts of more than 4000 airports (METAR and TAF reports).

The available stations are represented by yellow and red dots on the map.

Hover mouse over dot to see the name of the station.

Then click to see weather observations and forecasts.

To change the map : click on the green buttons with a black cross to zoom in, on the green button with a dash to zoom out, or on the green arrows for adjacent maps.


METAR-TAF: